Time;durP1;ratioP1;P1;durP2;ratioP2;P2;SDS_P1;SDS_P2;PMS_P1;PMS_P2;Temp;Humidity;BMP_temperature;BMP_pressure;BME280_temperature;BME280_humidity;BME280_pressure;Samples;Min_cycle;Max_cycle;Signal;HPM_P1;HPM_P2
2021/06/15 00:01:25;;;;;;;;;11.25;8.25;;;;;27.16;40.36;101545.22;5062922;28;45305;-87
2021/06/15 00:03:51;;;;;;;;;11.50;11.25;;;;;27.10;41.24;101550.63;5070085;28;46081;-85
2021/06/15 00:06:17;;;;;;;;;9.00;8.50;;;;;26.99;40.88;101554.31;5068054;28;45760;-77
2021/06/15 00:08:42;;;;;;;;;12.00;12.00;;;;;26.86;41.52;101552.69;5058088;28;45327;-86
2021/06/15 00:11:08;;;;;;;;;25.25;23.00;;;;;26.77;41.95;101547.44;5056675;28;45427;-86
2021/06/15 00:13:34;;;;;;;;;20.75;20.75;;;;;26.70;41.83;101542.19;5056697;28;46189;-87
2021/06/15 00:15:59;;;;;;;;;26.50;23.50;;;;;26.69;41.64;101548.38;5061843;28;45271;-84
2021/06/15 00:18:25;;;;;;;;;28.00;26.00;;;;;26.65;42.42;101549.34;5058786;28;45348;-86
2021/06/15 00:20:51;;;;;;;;;22.25;20.00;;;;;26.63;41.95;101543.16;5056290;28;45420;-86
2021/06/15 00:23:18;;;;;;;;;20.75;20.75;;;;;26.58;41.90;101537.88;5056367;28;46181;-78
2021/06/15 00:25:44;;;;;;;;;20.00;19.75;;;;;26.58;43.01;101551.16;5042783;28;45255;-86
2021/06/15 00:28:09;;;;;;;;;21.25;19.75;;;;;26.55;42.27;101537.03;5064487;28;45261;-82
2021/06/15 00:30:35;;;;;;;;;23.50;21.75;;;;;26.52;43.06;101548.56;5063716;28;45552;-85
2021/06/15 00:33:01;;;;;;;;;18.00;17.25;;;;;26.53;42.96;101545.00;5056269;28;46236;-85
2021/06/15 00:35:26;;;;;;;;;20.00;17.50;;;;;26.38;43.17;101530.09;5056308;28;45358;-86
2021/06/15 00:37:52;;;;;;;;;15.00;13.25;;;;;26.41;43.14;101548.69;5059821;28;45287;-86
2021/06/15 00:40:20;;;;;;;;;14.75;13.00;;;;;26.37;42.95;101549.59;5056929;28;45420;-87
2021/06/15 00:42:46;;;;;;;;;11.75;11.50;;;;;26.28;43.47;101536.41;5059958;28;46262;-87
2021/06/15 00:45:15;;;;;;;;;11.75;11.75;;;;;26.26;43.61;101540.84;5060085;28;45851;-81
2021/06/15 00:47:46;;;;;;;;;13.25;12.25;;;;;26.26;43.96;101536.44;5059890;28;45354;-76
2021/06/15 00:50:13;;;;;;;;;10.75;10.75;;;;;26.21;43.32;101530.25;5059704;28;45352;-76
2021/06/15 00:52:39;;;;;;;;;13.25;11.50;;;;;26.15;43.41;101532.09;5059391;28;46249;-86
2021/06/15 00:55:05;;;;;;;;;10.75;8.00;;;;;26.08;44.35;101532.13;5061151;28;45363;-79
2021/06/15 00:57:31;;;;;;;;;12.25;12.25;;;;;26.07;43.89;101534.81;5066285;28;45427;-86
2021/06/15 00:59:57;;;;;;;;;10.75;10.75;;;;;26.00;44.00;101539.28;5064326;28;45625;-80
2021/06/15 01:02:24;;;;;;;;;12.75;10.25;;;;;26.00;43.78;101539.28;5059192;28;45799;-84
2021/06/15 01:04:50;;;;;;;;;13.25;13.25;;;;;25.98;44.27;101537.50;5059044;28;45919;-87
2021/06/15 01:07:55;;;;;;;;;11.75;8.75;;;;;25.83;44.39;101541.16;5059655;28;45493;-83
2021/06/15 01:11:02;;;;;;;;;12.25;11.00;;;;;25.69;44.64;101539.50;5059337;28;45498;-86
2021/06/15 01:13:51;;;;;;;;;10.50;9.75;;;;;25.64;45.52;101547.50;5043544;28;45395;-79
2021/06/15 01:16:40;;;;;;;;;12.00;12.00;;;;;25.58;45.35;101544.00;5060253;28;45244;-80
2021/06/15 01:19:22;;;;;;;;;11.00;11.00;;;;;25.55;45.10;101546.66;5059507;28;45340;-87
2021/06/15 01:22:04;;;;;;;;;12.00;10.50;;;;;25.55;45.73;101549.31;5058816;28;45225;-81
2021/06/15 01:24:42;;;;;;;;;9.75;9.25;;;;;25.49;45.90;101535.19;5059158;28;45683;-80
2021/06/15 01:27:32;;;;;;;;;11.25;10.75;;;;;25.33;46.31;101552.91;5060702;28;45935;-77
2021/06/15 01:30:03;;;;;;;;;12.00;11.75;;;;;25.23;45.87;101539.72;5060777;28;45254;-81
2021/06/15 01:32:31;;;;;;;;;12.25;11.75;;;;;25.22;46.60;101545.91;5060061;28;45446;-78
2021/06/15 01:34:58;;;;;;;;;11.75;11.50;;;;;25.10;46.70;101537.13;5058532;28;45559;-78
2021/06/15 01:37:25;;;;;;;;;15.00;12.00;;;;;25.08;46.71;101554.78;5058242;28;45683;-81
2021/06/15 01:40:03;;;;;;;;;13.75;11.50;;;;;25.08;47.12;101551.28;5039910;28;45405;-80
2021/06/15 01:42:37;;;;;;;;;9.50;9.00;;;;;25.07;46.63;101545.06;5057992;28;45487;-78
2021/06/15 01:45:08;;;;;;;;;10.25;10.25;;;;;25.01;46.86;101545.97;5058375;28;45606;-76
2021/06/15 01:47:36;;;;;;;;;11.50;10.50;;;;;24.95;47.25;101545.09;5058074;28;45233;-76
2021/06/15 01:50:05;;;;;;;;;8.00;8.00;;;;;24.88;47.44;101547.78;5057772;28;45310;-80
2021/06/15 01:52:35;;;;;;;;;11.25;9.00;;;;;24.81;47.55;101551.34;5056878;28;45509;-79
2021/06/15 01:55:07;;;;;;;;;9.50;8.25;;;;;24.79;47.23;101544.28;5057411;28;45223;-76
2021/06/15 01:57:33;;;;;;;;;12.25;11.00;;;;;24.69;47.66;101552.25;5079440;27;45940;-78
2021/06/15 02:00:07;;;;;;;;;11.00;11.00;;;;;24.60;47.49;101544.28;5079112;28;45319;-77
2021/06/15 02:02:34;;;;;;;;;10.75;10.75;;;;;24.62;47.90;101555.78;5078956;27;45372;-73
2021/06/15 02:05:00;;;;;;;;;12.00;11.25;;;;;24.55;47.86;101559.31;5077410;27;45911;-75
2021/06/15 02:07:30;;;;;;;;;14.00;11.00;;;;;24.54;48.14;101554.91;5077684;28;45351;-76
2021/06/15 02:10:09;;;;;;;;;12.50;11.00;;;;;24.45;48.25;101561.09;5077450;28;45473;-75
2021/06/15 02:12:41;;;;;;;;;11.75;9.00;;;;;24.41;48.35;101556.66;5078163;28;45249;-77
2021/06/15 02:15:10;;;;;;;;;12.75;11.25;;;;;24.33;48.14;101555.78;5077396;28;45459;-75
2021/06/15 02:17:41;;;;;;;;;10.00;9.50;;;;;24.24;48.21;101554.94;5077558;28;45731;-75
2021/06/15 02:20:09;;;;;;;;;10.50;8.75;;;;;24.19;48.71;101561.97;5078159;28;45438;-76
2021/06/15 02:22:35;;;;;;;;;11.50;11.00;;;;;24.16;48.22;101561.09;5077918;27;45381;-76
2021/06/15 02:25:03;;;;;;;;;11.00;11.00;;;;;24.14;47.82;101561.09;5078583;28;46316;-75
2021/06/15 02:27:28;;;;;;;;;14.25;12.25;;;;;24.13;48.10;101546.09;5079146;28;45308;-75
2021/06/15 02:29:57;;;;;;;;;11.00;11.00;;;;;24.08;48.02;101551.41;5078351;28;45422;-75
2021/06/15 02:32:34;;;;;;;;;10.75;9.75;;;;;24.11;47.92;101556.69;5078586;28;45518;-85
2021/06/15 02:35:03;;;;;;;;;11.00;10.50;;;;;24.11;48.07;101553.16;5078044;28;45240;-76
2021/06/15 02:37:41;;;;;;;;;10.00;10.00;;;;;24.15;48.26;101554.94;5077712;28;45507;-79
2021/06/15 02:40:08;;;;;;;;;11.00;11.00;;;;;24.08;47.95;101556.69;5077738;27;45319;-83
2021/06/15 02:42:41;;;;;;;;;11.75;9.75;;;;;23.99;47.58;101561.06;5077671;28;45240;-74
2021/06/15 02:45:09;;;;;;;;;10.25;10.00;;;;;23.87;47.81;101569.84;5077068;27;46474;-74
2021/06/15 02:47:36;;;;;;;;;11.75;11.75;;;;;23.79;48.08;101573.38;5077606;27;45328;-76
2021/06/15 02:50:04;;;;;;;;;10.25;7.50;;;;;23.64;47.92;101562.75;5077470;28;45443;-75
2021/06/15 02:52:46;;;;;;;;;9.50;9.50;;;;;23.53;47.96;101560.09;5077296;27;45463;-76
2021/06/15 02:55:31;;;;;;;;;12.50;11.00;;;;;23.54;48.30;101564.47;5060677;28;46565;-76
2021/06/15 02:57:56;;;;;;;;;10.75;9.00;;;;;23.58;47.89;101552.19;5060051;28;46258;-75
2021/06/15 03:00:22;;;;;;;;;9.50;8.50;;;;;23.60;47.97;101563.63;5039795;28;45217;-79
2021/06/15 03:02:48;;;;;;;;;9.50;9.50;;;;;23.61;47.88;101550.44;5057408;28;45665;-77
2021/06/15 03:05:16;;;;;;;;;9.50;9.50;;;;;23.64;47.47;101544.25;5059605;28;45336;-86
2021/06/15 03:07:47;;;;;;;;;12.00;11.00;;;;;23.71;47.98;101553.94;5059480;28;45398;-78
2021/06/15 03:10:13;;;;;;;;;11.50;10.00;;;;;23.76;47.17;101559.25;5061160;28;46151;-86
2021/06/15 03:12:49;;;;;;;;;12.25;11.25;;;;;23.76;47.40;101565.44;5062344;28;45449;-86
2021/06/15 03:15:19;;;;;;;;;12.25;10.75;;;;;23.61;47.53;101558.34;5065765;28;45395;-83
2021/06/15 03:18:11;;;;;;;;;14.50;14.00;;;;;23.50;47.73;101558.31;5064927;28;45682;-85
2021/06/15 03:20:39;;;;;;;;;11.50;11.50;;;;;23.31;47.81;101553.84;5071159;28;45373;-87
2021/06/15 03:23:36;;;;;;;;;11.50;11.00;;;;;23.21;48.15;101555.59;5065551;28;45650;-87
2021/06/15 03:26:09;;;;;;;;;9.75;9.50;;;;;23.17;48.08;101553.75;5065892;28;45356;-76
2021/06/15 03:28:37;;;;;;;;;11.00;10.00;;;;;23.21;47.91;101545.03;5069420;28;45332;-78
2021/06/15 03:31:04;;;;;;;;;8.25;8.25;;;;;23.27;47.77;101546.81;5073214;28;44790;-86
2021/06/15 03:33:34;;;;;;;;;12.75;10.00;;;;;23.30;48.46;101554.72;5063367;28;45340;-84
2021/06/15 03:36:01;;;;;;;;;10.00;10.00;;;;;23.19;47.87;101552.91;5059752;28;45254;-81
2021/06/15 03:38:33;;;;;;;;;11.75;11.75;;;;;23.00;48.23;101551.03;5072830;28;45229;-80
2021/06/15 03:41:00;;;;;;;;;10.75;10.75;;;;;22.98;48.47;101551.03;5061426;28;45257;-86
2021/06/15 03:43:29;;;;;;;;;13.50;13.00;;;;;22.94;48.31;101546.59;5057031;28;45206;-85
2021/06/15 03:46:04;;;;;;;;;11.00;11.00;;;;;22.88;48.24;101541.31;5056444;28;46034;-85
2021/06/15 03:48:31;;;;;;;;;12.25;12.25;;;;;22.85;48.74;101536.88;5058887;28;45336;-85
2021/06/15 03:50:59;;;;;;;;;15.00;13.00;;;;;22.92;48.14;101553.63;5060959;28;45287;-84
2021/06/15 03:53:29;;;;;;;;;10.75;10.75;;;;;22.92;48.35;101560.69;5060148;28;45317;-87
2021/06/15 03:55:57;;;;;;;;;14.25;12.00;;;;;22.87;48.70;101550.97;5058964;28;45398;-79
2021/06/15 03:58:23;;;;;;;;;8.25;8.25;;;;;22.93;48.22;101544.84;5062702;28;45253;-80
2021/06/15 04:00:50;;;;;;;;;14.50;12.25;;;;;22.96;47.75;101554.53;5066035;28;44731;-76
2021/06/15 04:03:17;;;;;;;;;10.75;9.50;;;;;22.94;47.78;101546.59;5041995;28;45357;-76
2021/06/15 04:05:45;;;;;;;;;13.00;11.25;;;;;22.95;47.53;101550.13;5058562;28;45917;-83
2021/06/15 04:08:14;;;;;;;;;11.75;10.00;;;;;23.03;47.64;101549.28;5054384;28;45347;-82
2021/06/15 04:10:43;;;;;;;;;11.25;10.25;;;;;23.03;47.42;101551.06;5038641;28;45310;-86
2021/06/15 04:13:10;;;;;;;;;13.25;11.75;;;;;23.01;47.44;101545.75;5056089;28;45335;-82
2021/06/15 04:15:36;;;;;;;;;12.00;12.00;;;;;23.06;47.55;101550.19;5056550;28;45355;-85
2021/06/15 04:18:05;;;;;;;;;13.00;13.00;;;;;23.12;47.22;101556.38;5059440;28;45461;-77
2021/06/15 04:20:39;;;;;;;;;13.00;11.50;;;;;23.14;46.93;101562.56;5061290;28;45314;-80
2021/06/15 04:23:07;;;;;;;;;11.75;10.25;;;;;23.10;47.08;101559.91;5061451;28;45527;-85
2021/06/15 04:25:38;;;;;;;;;10.75;10.75;;;;;22.95;46.98;101552.75;5061912;28;46154;-82
2021/06/15 04:28:04;;;;;;;;;9.75;9.75;;;;;22.91;47.06;101561.56;5066368;28;45241;-76
2021/06/15 04:30:34;;;;;;;;;11.00;11.00;;;;;22.80;47.08;101565.03;5077859;28;44702;-79
2021/06/15 04:33:03;;;;;;;;;14.00;13.00;;;;;22.80;46.81;101569.41;5078553;28;45395;-76
2021/06/15 04:35:33;;;;;;;;;11.50;10.00;;;;;22.79;46.86;101565.88;5053532;28;46990;-82
2021/06/15 04:38:03;;;;;;;;;12.50;12.50;;;;;22.87;47.00;101571.22;5063766;28;45336;-81
2021/06/15 04:40:35;;;;;;;;;10.75;10.75;;;;;22.92;47.19;101573.88;5060006;28;45318;-85
2021/06/15 04:43:15;;;;;;;;;14.50;12.00;;;;;23.03;46.59;101585.41;5059524;28;45421;-81
2021/06/15 04:45:44;;;;;;;;;11.75;11.25;;;;;23.08;46.58;101583.66;5059357;28;46107;-85
2021/06/15 04:48:25;;;;;;;;;10.75;10.25;;;;;23.12;46.52;101582.81;5041648;28;45770;-84
2021/06/15 04:50:57;;;;;;;;;12.50;11.75;;;;;23.13;46.38;101573.09;5060791;28;45237;-86
2021/06/15 04:53:23;;;;;;;;;14.00;11.25;;;;;23.13;46.29;101587.22;5061746;28;45276;-83
2021/06/15 04:55:50;;;;;;;;;13.50;12.00;;;;;23.01;46.13;101579.22;5061995;28;45272;-85
2021/06/15 04:58:20;;;;;;;;;12.50;12.00;;;;;22.93;46.17;101592.38;5065622;28;45320;-82
2021/06/15 05:00:49;;;;;;;;;10.50;10.50;;;;;22.90;46.31;101596.75;5068263;28;45315;-85
2021/06/15 05:03:18;;;;;;;;;13.50;13.50;;;;;22.98;46.42;101598.59;5060574;28;45318;-79
2021/06/15 05:05:45;;;;;;;;;13.25;12.00;;;;;22.90;45.89;101608.19;5058691;28;46406;-80
2021/06/15 05:08:14;;;;;;;;;18.75;11.50;;;;;22.85;46.13;101609.94;5040743;28;45515;-79
2021/06/15 05:10:42;;;;;;;;;15.25;14.75;;;;;22.76;46.44;101618.66;5059012;28;45378;-79
2021/06/15 05:13:13;;;;;;;;;13.75;12.75;;;;;22.63;46.68;101612.41;5058946;28;45249;-79
2021/06/15 05:15:42;;;;;;;;;15.75;13.25;;;;;22.60;46.90;101620.31;5058610;28;46398;-76
2021/06/15 05:18:09;;;;;;;;;16.00;13.50;;;;;22.64;46.67;101627.38;5058823;28;45730;-81
2021/06/15 05:20:35;;;;;;;;;16.75;13.00;;;;;22.61;46.85;101622.06;5059064;28;45432;-80
2021/06/15 05:23:08;;;;;;;;;16.50;15.75;;;;;22.62;46.99;101630.91;5059460;28;45430;-76
2021/06/15 05:25:34;;;;;;;;;12.25;12.00;;;;;22.51;47.03;101621.13;5059512;28;45832;-78
2021/06/15 05:27:59;;;;;;;;;14.00;12.00;;;;;22.46;47.07;101614.06;5060776;28;45520;-75
2021/06/15 05:30:25;;;;;;;;;17.00;14.00;;;;;22.50;46.97;101629.91;5061837;28;45345;-76
2021/06/15 05:32:51;;;;;;;;;14.25;13.00;;;;;22.46;47.40;101628.13;5058759;28;45471;-77
2021/06/15 05:35:16;;;;;;;;;12.00;12.00;;;;;22.51;47.41;101621.13;5058989;28;45610;-78
2021/06/15 05:37:44;;;;;;;;;17.25;15.25;;;;;22.60;47.04;101636.13;5058358;28;45502;-76
2021/06/15 05:40:11;;;;;;;;;16.75;15.75;;;;;22.54;47.18;101634.34;5057829;28;45326;-76
2021/06/15 05:42:37;;;;;;;;;16.25;14.00;;;;;22.47;47.30;101629.88;5058483;28;45323;-77
2021/06/15 05:45:03;;;;;;;;;16.75;14.00;;;;;22.42;47.59;101629.84;5058251;28;45317;-81
2021/06/15 05:47:29;;;;;;;;;10.25;10.25;;;;;22.37;46.83;101633.28;5058812;28;45445;-84
2021/06/15 05:49:55;;;;;;;;;13.25;12.00;;;;;22.36;47.38;101626.25;5058233;28;45461;-83
2021/06/15 05:52:24;;;;;;;;;14.25;12.00;;;;;22.34;47.46;101633.25;5065526;28;45457;-82
2021/06/15 05:54:49;;;;;;;;;14.25;14.25;;;;;22.38;47.56;101629.78;5043108;28;45358;-79
2021/06/15 05:57:15;;;;;;;;;13.50;12.00;;;;;22.39;47.39;101623.63;5066300;28;45333;-85
2021/06/15 05:59:40;;;;;;;;;15.75;14.25;;;;;22.42;46.61;101628.94;5064505;28;45229;-86
2021/06/15 06:02:06;;;;;;;;;15.25;14.00;;;;;22.35;46.94;101614.78;5062975;28;45266;-85
2021/06/15 06:04:49;;;;;;;;;10.25;9.50;;;;;22.37;46.45;101617.44;5060631;28;45813;-82
2021/06/15 06:09:59;;;;;;;;;15.50;15.50;;;;;22.33;46.85;101619.19;5058244;28;45368;-81
2021/06/15 06:12:25;;;;;;;;;14.00;10.75;;;;;22.35;46.58;101621.81;5058447;28;45217;-83
2021/06/15 06:14:51;;;;;;;;;17.00;13.00;;;;;22.35;46.88;101624.47;5057193;28;45574;-81
2021/06/15 06:17:16;;;;;;;;;12.75;11.25;;;;;22.42;46.51;101621.94;5058208;28;45759;-82
2021/06/15 06:19:43;;;;;;;;;15.25;14.25;;;;;22.50;46.58;101619.38;5063067;28;45242;-85
2021/06/15 06:22:09;;;;;;;;;11.00;11.00;;;;;22.53;46.75;101622.00;5072711;28;45431;-81
2021/06/15 06:24:35;;;;;;;;;13.50;12.75;;;;;22.56;46.38;101610.63;5060617;28;45327;-80
2021/06/15 06:27:00;;;;;;;;;13.00;12.00;;;;;22.67;46.49;101611.59;5059316;28;45351;-82
2021/06/15 06:29:26;;;;;;;;;12.25;11.50;;;;;22.78;46.68;101601.09;5059002;28;45477;-79
2021/06/15 06:31:52;;;;;;;;;13.25;11.00;;;;;22.95;45.87;101614.41;5056766;28;45404;-77
2021/06/15 06:34:18;;;;;;;;;14.50;14.50;;;;;23.07;45.93;101615.34;5055693;28;46304;-79
2021/06/15 06:36:44;;;;;;;;;14.50;12.75;;;;;23.16;45.57;101623.31;5037974;28;45372;-80
2021/06/15 06:39:09;;;;;;;;;12.00;11.75;;;;;23.28;45.67;101627.81;5055976;28;45231;-80
2021/06/15 06:41:37;;;;;;;;;17.25;14.50;;;;;23.34;45.66;101622.56;5057437;28;45501;-80
2021/06/15 06:44:04;;;;;;;;;13.25;13.25;;;;;23.46;44.78;101629.66;5056011;28;45541;-81
2021/06/15 06:46:30;;;;;;;;;16.25;14.75;;;;;23.52;44.86;101634.09;5058033;28;45424;-82
2021/06/15 06:48:56;;;;;;;;;20.75;20.75;;;;;23.46;44.97;101633.19;5057930;28;45502;-79
2021/06/15 06:51:21;;;;;;;;;17.75;16.50;;;;;23.42;44.91;101634.06;5057665;28;45526;-77
2021/06/15 06:53:47;;;;;;;;;15.75;14.50;;;;;23.33;44.65;101626.94;5057324;28;46178;-77
2021/06/15 06:56:13;;;;;;;;;14.00;13.00;;;;;23.38;45.01;101621.69;5058858;28;45265;-79
2021/06/15 06:58:40;;;;;;;;;14.25;13.75;;;;;23.52;45.01;101632.34;5055038;28;45462;-74
2021/06/15 07:01:05;;;;;;;;;17.25;15.00;;;;;23.58;44.41;101635.00;5054098;28;45367;-77
2021/06/15 07:03:31;;;;;;;;;17.25;16.00;;;;;23.47;44.45;101624.41;5055330;28;45499;-78
2021/06/15 07:05:57;;;;;;;;;15.00;13.25;;;;;23.53;44.53;101628.81;5056216;28;45782;-78
2021/06/15 07:08:24;;;;;;;;;14.75;13.25;;;;;23.57;44.76;101614.72;5055741;28;45411;-77
2021/06/15 07:10:50;;;;;;;;;14.75;13.00;;;;;23.68;44.13;101613.88;5053911;28;45562;-76
2021/06/15 07:13:16;;;;;;;;;14.75;13.25;;;;;23.77;44.09;101611.25;5044858;28;46068;-76
2021/06/15 07:15:41;;;;;;;;;18.00;16.00;;;;;23.80;44.30;101614.81;5050470;28;45742;-76
2021/06/15 07:18:08;;;;;;;;;22.75;17.00;;;;;23.81;44.34;101620.97;5051103;28;45739;-75
2021/06/15 07:20:35;;;;;;;;;17.25;17.25;;;;;23.87;44.37;101622.75;5035892;28;45659;-76
2021/06/15 07:23:01;;;;;;;;;17.00;15.50;;;;;23.89;44.32;101618.34;5041243;28;47982;-76
2021/06/15 07:25:26;;;;;;;;;15.00;15.00;;;;;23.91;44.33;101619.25;5056911;28;45449;-77
2021/06/15 07:27:52;;;;;;;;;18.00;13.50;;;;;23.99;44.09;101624.56;5056266;28;45308;-76
2021/06/15 07:30:19;;;;;;;;;16.00;15.00;;;;;24.04;43.51;101631.63;5055322;28;45526;-77
2021/06/15 07:32:46;;;;;;;;;14.50;14.00;;;;;24.06;44.36;101621.94;5054526;28;45880;-76
2021/06/15 07:35:12;;;;;;;;;16.25;14.00;;;;;24.15;44.20;101617.53;5065670;28;45834;-76
2021/06/15 07:37:38;;;;;;;;;16.00;16.00;;;;;24.24;44.09;101621.09;5054830;28;45565;-77
2021/06/15 07:40:06;;;;;;;;;17.00;15.25;;;;;24.31;43.86;101615.78;5054503;28;45545;-78
2021/06/15 07:42:34;;;;;;;;;16.50;14.50;;;;;24.27;43.68;101609.59;5035976;28;46525;-84
2021/06/15 07:45:01;;;;;;;;;14.50;12.25;;;;;24.32;43.54;101614.91;5055981;28;45467;-78
2021/06/15 07:47:26;;;;;;;;;15.50;15.00;;;;;24.38;43.76;101609.63;5055343;28;45458;-77
2021/06/15 07:49:52;;;;;;;;;13.75;12.50;;;;;24.41;43.85;101604.31;5054361;28;45585;-79
2021/06/15 07:52:18;;;;;;;;;14.75;13.75;;;;;24.40;43.65;101598.16;5057828;28;46164;-78
2021/06/15 07:54:45;;;;;;;;;14.00;12.50;;;;;24.50;43.35;101603.44;5042292;28;45851;-77
2021/06/15 07:57:11;;;;;;;;;20.00;17.00;;;;;24.55;43.43;101602.56;5059074;28;45311;-78
2021/06/15 07:59:37;;;;;;;;;18.00;15.75;;;;;24.54;43.47;101599.91;5059400;28;46219;-77
2021/06/15 08:02:04;;;;;;;;;15.50;15.00;;;;;24.66;44.01;101610.50;5059878;28;46389;-76
2021/06/15 08:04:29;;;;;;;;;19.50;17.75;;;;;24.72;42.86;101614.94;5041697;28;45506;-77
2021/06/15 08:06:55;;;;;;;;;15.00;14.75;;;;;24.73;43.55;101604.34;5058681;28;45515;-79
2021/06/15 08:09:21;;;;;;;;;13.75;13.75;;;;;24.77;43.03;101613.16;5058050;28;45582;-78
2021/06/15 08:11:46;;;;;;;;;16.75;15.25;;;;;24.79;43.32;101608.75;5046618;28;47898;-78
2021/06/15 08:14:12;;;;;;;;;20.50;18.75;;;;;24.75;42.78;101599.03;5059822;28;45494;-84
2021/06/15 08:16:38;;;;;;;;;15.50;15.50;;;;;24.84;43.24;101620.19;5058909;28;45454;-82
2021/06/15 08:19:03;;;;;;;;;17.25;15.75;;;;;24.81;43.37;101620.22;5059552;28;45580;-77
2021/06/15 08:21:29;;;;;;;;;17.50;15.00;;;;;24.80;43.09;101612.25;5061127;28;45230;-82
2021/06/15 08:23:55;;;;;;;;;19.50;17.75;;;;;24.77;43.44;101605.19;5062260;28;45249;-79
2021/06/15 08:26:20;;;;;;;;;20.50;16.00;;;;;24.73;43.58;101608.72;5062662;28;45392;-81
2021/06/15 08:28:46;;;;;;;;;17.25;16.25;;;;;24.76;43.16;101603.44;5062657;28;46551;-77
2021/06/15 08:31:12;;;;;;;;;19.25;18.50;;;;;24.82;43.46;101606.09;5059314;28;45830;-80
2021/06/15 08:33:38;;;;;;;;;21.50;18.50;;;;;24.87;43.44;101606.09;5060003;28;45292;-79
2021/06/15 08:36:04;;;;;;;;;14.50;13.75;;;;;24.97;43.69;101596.31;5060802;28;45310;-82
2021/06/15 08:38:29;;;;;;;;;19.00;17.00;;;;;25.06;42.88;101600.72;5060169;28;45671;-78
2021/06/15 08:40:55;;;;;;;;;13.75;13.00;;;;;25.14;42.89;101601.59;5059466;28;46032;-79
2021/06/15 08:43:22;;;;;;;;;16.00;15.25;;;;;25.18;43.28;101598.91;5058585;28;45601;-78
2021/06/15 08:45:48;;;;;;;;;17.75;17.00;;;;;25.27;43.18;101602.44;5057622;28;45466;-78
2021/06/15 08:48:14;;;;;;;;;16.50;15.50;;;;;25.35;43.00;101600.63;5057217;28;45531;-79
2021/06/15 08:50:43;;;;;;;;;18.75;16.00;;;;;25.44;42.83;101605.03;5056847;28;46410;-80
2021/06/15 08:53:09;;;;;;;;;16.75;14.50;;;;;25.44;43.02;101608.56;5058893;28;45910;-80
2021/06/15 08:55:35;;;;;;;;;17.50;16.25;;;;;25.46;42.98;101601.50;5061225;28;45447;-80
2021/06/15 08:58:13;;;;;;;;;21.00;19.00;;;;;25.47;42.12;101600.63;5064422;28;45474;-89
2021/06/15 09:00:38;;;;;;;;;15.75;15.75;;;;;25.50;42.59;101611.19;5059912;28;45438;-82
2021/06/15 09:03:04;;;;;;;;;19.75;17.50;;;;;25.52;42.34;101603.25;5056971;28;46989;-81
2021/06/15 09:05:30;;;;;;;;;17.25;15.50;;;;;25.51;42.03;101598.81;5055163;28;45421;-80
2021/06/15 09:08:04;;;;;;;;;17.25;17.25;;;;;25.44;42.50;101582.06;5055885;28;45538;-81
2021/06/15 09:10:36;;;;;;;;;18.00;17.00;;;;;25.52;41.80;101592.63;5052799;28;46244;-84
2021/06/15 09:13:03;;;;;;;;;18.75;17.25;;;;;25.57;42.24;101604.09;5040431;28;45781;-83
2021/06/15 09:15:32;;;;;;;;;19.25;15.50;;;;;25.59;41.99;101598.78;5039832;28;45488;-82
2021/06/15 09:17:57;;;;;;;;;18.25;17.25;;;;;25.65;41.90;101601.41;5058127;28;45233;-84
2021/06/15 09:20:28;;;;;;;;;15.50;14.50;;;;;25.67;42.24;101596.97;5058025;28;45931;-84
2021/06/15 09:23:04;;;;;;;;;17.75;16.25;;;;;25.77;42.29;101600.44;5061056;28;45997;-83
2021/06/15 09:25:31;;;;;;;;;16.75;16.75;;;;;25.75;42.17;101589.84;5043922;28;45343;-83
2021/06/15 09:27:58;;;;;;;;;15.75;14.25;;;;;25.80;41.68;101584.50;5059090;28;45586;-83
2021/06/15 09:30:27;;;;;;;;;18.00;15.25;;;;;25.87;41.75;101598.63;5061537;28;45548;-85
2021/06/15 09:32:53;;;;;;;;;17.50;15.50;;;;;25.80;41.54;101598.66;5068147;28;45658;-84
2021/06/15 09:35:28;;;;;;;;;14.00;14.00;;;;;25.93;42.03;101604.78;5065252;28;45647;-83
2021/06/15 09:38:00;;;;;;;;;16.75;15.50;;;;;26.00;41.54;101602.97;5054706;28;45474;-84
2021/06/15 09:40:36;;;;;;;;;19.50;18.75;;;;;26.07;40.99;101601.16;5057296;28;47786;-82
2021/06/15 09:43:09;;;;;;;;;17.00;13.50;;;;;26.11;40.90;101598.50;5061986;28;45914;-81
2021/06/15 09:45:47;;;;;;;;;14.50;14.25;;;;;26.18;41.41;101595.78;5059512;28;45546;-85
2021/06/15 09:48:29;;;;;;;;;25.00;21.75;;;;;26.26;41.30;101591.28;5066636;28;45344;-81
2021/06/15 09:51:04;;;;;;;;;13.00;13.00;;;;;26.27;41.16;101591.28;5070872;28;46385;-82
2021/06/15 09:53:34;;;;;;;;;16.75;14.50;;;;;26.32;40.60;101583.28;5068253;28;45944;-83
2021/06/15 09:56:03;;;;;;;;;13.25;13.25;;;;;26.42;40.48;101592.03;5068851;28;45144;-82
2021/06/15 09:58:52;;;;;;;;;16.75;15.25;;;;;26.53;40.08;101592.81;5061527;28;45370;-79
2021/06/15 10:01:37;;;;;;;;;21.00;14.00;;;;;26.61;40.63;101598.06;5060485;28;46038;-79
2021/06/15 10:04:16;;;;;;;;;13.50;13.50;;;;;26.66;40.08;101601.56;5036606;28;45239;-81
2021/06/15 10:06:50;;;;;;;;;12.25;10.50;;;;;26.66;39.82;101598.00;5057307;28;45715;-88
2021/06/15 10:09:35;;;;;;;;;13.25;11.75;;;;;26.69;40.16;101598.84;5040467;28;45620;-78
2021/06/15 10:12:03;;;;;;;;;13.75;12.50;;;;;26.73;38.98;101600.59;5059160;28;45345;-88
2021/06/15 10:14:29;;;;;;;;;10.00;10.00;;;;;26.71;39.63;101596.19;5044777;28;45139;-82
2021/06/15 10:16:56;;;;;;;;;10.75;10.75;;;;;26.75;38.94;101597.91;5067531;28;45519;-83
2021/06/15 10:19:23;;;;;;;;;12.00;11.75;;;;;26.68;39.00;101585.59;5052184;28;45576;-84
2021/06/15 10:21:50;;;;;;;;;11.50;11.00;;;;;26.72;39.33;101595.31;5058385;28;45587;-83
2021/06/15 10:24:22;;;;;;;;;12.50;11.50;;;;;26.71;38.92;101590.88;5043529;28;45714;-79
2021/06/15 10:26:49;;;;;;;;;9.75;9.00;;;;;26.64;38.25;101575.88;5061424;28;45436;-83
2021/06/15 10:29:16;;;;;;;;;9.75;9.75;;;;;26.67;37.65;101582.03;5058675;28;45447;-82
2021/06/15 10:31:44;;;;;;;;;13.00;11.25;;;;;26.69;38.14;101582.06;5058357;28;45998;-82
2021/06/15 10:34:10;;;;;;;;;8.50;8.50;;;;;26.70;38.06;101589.13;5056812;28;46566;-85
2021/06/15 10:36:46;;;;;;;;;9.00;9.00;;;;;26.63;38.64;101561.75;5057187;28;45372;-82
2021/06/15 10:39:36;;;;;;;;;11.00;11.00;;;;;26.75;38.55;101581.09;5059551;28;45513;-83
2021/06/15 10:42:14;;;;;;;;;10.50;10.50;;;;;26.71;38.06;101585.56;5058854;28;46137;-83
2021/06/15 10:44:41;;;;;;;;;10.50;9.00;;;;;26.65;36.90;101578.56;5054560;28;45921;-80
2021/06/15 10:47:13;;;;;;;;;13.50;11.75;;;;;26.64;37.30;101574.13;5056735;28;45465;-84
2021/06/15 10:50:02;;;;;;;;;8.25;8.25;;;;;26.72;37.42;101584.69;5058167;28;45493;-82
2021/06/15 10:52:58;;;;;;;;;10.25;10.25;;;;;26.84;36.83;101581.03;5058585;28;46100;-81
2021/06/15 10:56:00;;;;;;;;;11.25;10.25;;;;;26.91;37.57;101573.88;5054990;28;45482;-84
2021/06/15 10:58:29;;;;;;;;;14.25;11.75;;;;;26.94;38.72;101569.41;5057027;28;45450;-81
2021/06/15 11:00:54;;;;;;;;;13.50;12.25;;;;;27.06;38.80;101576.34;5056489;28;45659;-82
2021/06/15 11:03:23;;;;;;;;;11.50;11.50;;;;;27.11;38.31;101577.19;5053680;28;45465;-81
2021/06/15 11:05:49;;;;;;;;;15.50;15.00;;;;;27.11;38.25;101586.91;5054895;28;45482;-81
2021/06/15 11:08:19;;;;;;;;;13.50;12.25;;;;;27.16;38.71;101571.81;5054677;28;45506;-81
2021/06/15 11:10:48;;;;;;;;;14.50;13.25;;;;;27.18;38.49;101562.03;5054106;28;45324;-81
2021/06/15 11:13:14;;;;;;;;;13.25;13.25;;;;;27.16;39.34;101567.34;5054832;28;46423;-82
2021/06/15 11:16:02;;;;;;;;;10.75;10.75;;;;;27.25;38.86;101555.72;5055229;28;45542;-81
2021/06/15 11:18:28;;;;;;;;;11.50;11.00;;;;;27.28;38.59;101553.03;5038725;28;45592;-79
2021/06/15 11:20:55;;;;;;;;;10.25;10.25;;;;;27.32;38.04;101559.19;5063374;28;45344;-81
2021/06/15 11:23:21;;;;;;;;;13.25;11.75;;;;;27.35;37.99;101554.72;5044732;28;46865;-81
2021/06/15 11:26:11;;;;;;;;;9.75;9.50;;;;;27.28;38.67;101537.09;5062928;28;45413;-81